Time;durP1;ratioP1;P1;durP2;ratioP2;P2;SDS_P1;SDS_P2;PMS_P1;PMS_P2;Temp;Humidity;BMP_temperature;BMP_pressure;BME280_temperature;BME280_humidity;BME280_pressure;Samples;Min_cycle;Max_cycle;Signal;HPM_P1;HPM_P2
2022/02/06 00:01:52;;;;;;;;;;;;;;;17.85;37.04;101220.56;4984140;28;787;-60
2022/02/06 00:04:18;;;;;;;;;;;;;;;18.17;36.46;101230.56;4978711;28;854;-60
2022/02/06 00:06:43;;;;;;;;;;;;;;;18.32;36.17;101233.34;4978483;28;878;-60
2022/02/06 00:09:08;;;;;;;;;;;;;;;18.30;36.05;101230.03;4978268;28;1906;-60
2022/02/06 00:11:34;;;;;;;;;;;;;;;18.60;35.73;101244.91;4978423;28;900;-59
2022/02/06 00:13:59;;;;;;;;;;;;;;;18.70;35.37;101255.91;4981796;28;866;-59
2022/02/06 00:16:25;;;;;;;;;;;;;;;18.64;35.33;101262.53;4983054;28;779;-60
2022/02/06 00:18:50;;;;;;;;;;;;;;;18.30;36.02;101255.63;4978152;28;859;-60
2022/02/06 00:21:18;;;;;;;;;;;;;;;17.95;36.96;101259.16;4978220;28;905;-60
2022/02/06 00:23:47;;;;;;;;;;;;;;;17.60;37.48;101257.91;4978151;28;1055;-60
2022/02/06 00:26:24;;;;;;;;;;;;;;;17.28;38.00;101264.34;4978039;28;786;-60
2022/02/06 00:29:14;;;;;;;;;;;;;;;16.90;38.48;101288.25;4981477;28;1939;-60
2022/02/06 00:31:56;;;;;;;;;;;;;;;16.88;38.94;101272.03;4978796;28;1225;-60
2022/02/06 00:39:46;;;;;;;;;;;;;;;17.74;37.35;101277.47;4979957;28;791;-60
2022/02/06 00:42:12;;;;;;;;;;;;;;;18.10;36.51;101281.19;4977879;28;781;-60
2022/02/06 00:44:37;;;;;;;;;;;;;;;18.53;35.68;101282.91;4980416;28;874;-60
2022/02/06 00:47:03;;;;;;;;;;;;;;;18.83;34.96;101284.84;4977871;28;1056;-60
2022/02/06 00:49:30;;;;;;;;;;;;;;;19.03;34.66;101286.78;4977568;28;1993;-61
2022/02/06 00:52:22;;;;;;;;;;;;;;;18.66;35.15;101287.03;4979495;28;831;-60
2022/02/06 00:54:41;;;;;;;;;;;;;;;17.82;37.19;101292.63;4982521;28;1709;-60
2022/02/06 00:57:08;;;;;;;;;;;;;;;17.32;37.88;101309.44;4996628;28;1123;-60
2022/02/06 00:59:33;;;;;;;;;;;;;;;17.09;38.54;101305.97;4991105;28;905;-60
2022/02/06 01:01:59;;;;;;;;;;;;;;;17.05;38.31;101323.25;4977683;28;755;-59
2022/02/06 01:04:24;;;;;;;;;;;;;;;16.86;38.73;101300.84;4977458;28;871;-60
2022/02/06 01:06:50;;;;;;;;;;;;;;;16.91;38.87;101309.16;4979618;28;877;-60
2022/02/06 01:09:17;;;;;;;;;;;;;;;16.80;39.13;101302.69;4982218;28;1983;-60
2022/02/06 01:11:42;;;;;;;;;;;;;;;17.24;38.14;101302.50;4981521;28;752;-60
2022/02/06 01:16:45;;;;;;;;;;;;;;;18.45;35.88;101318.16;4983348;28;767;-61
2022/02/06 01:19:17;;;;;;;;;;;;;;;18.71;35.40;101309.09;4986275;28;775;-60
2022/02/06 01:21:52;;;;;;;;;;;;;;;18.27;36.17;101304.88;4981240;28;848;-61
2022/02/06 01:24:27;;;;;;;;;;;;;;;17.74;37.09;101311.31;4994332;28;730;-60
2022/02/06 01:26:58;;;;;;;;;;;;;;;17.36;37.96;101310.56;4999754;28;1439;-60
2022/02/06 01:32:12;;;;;;;;;;;;;;;16.97;38.64;101304.53;4982007;28;1269;-60
2022/02/06 01:34:46;;;;;;;;;;;;;;;16.61;39.09;101316.00;4981098;28;1027;-60
2022/02/06 01:37:23;;;;;;;;;;;;;;;16.92;38.91;101316.31;4981118;28;760;-60
2022/02/06 01:40:14;;;;;;;;;;;;;;;18.04;36.80;101326.31;4981683;28;764;-60
2022/02/06 01:42:50;;;;;;;;;;;;;;;18.21;36.11;101330.75;4995436;28;886;-60
2022/02/06 02:01:23;;;;;;;;;;;;;;;17.48;37.61;101342.53;4977993;28;930;-61
2022/02/06 02:03:59;;;;;;;;;;;;;;;17.44;37.84;101354.03;4999723;28;723;-60
2022/02/06 02:06:54;;;;;;;;;;;;;;;17.48;37.71;101354.34;4999470;28;835;-61
2022/02/06 02:14:55;;;;;;;;;;;;;;;17.35;37.96;101366.63;4980626;28;835;-60
2022/02/06 02:27:59;;;;;;;;;;;;;;;17.48;37.77;101400.25;4981472;28;1433;-60
2022/02/06 02:46:27;;;;;;;;;;;;;;;17.46;37.67;101406.03;4980088;28;881;-61
2022/02/06 02:48:54;;;;;;;;;;;;;;;17.31;37.97;101389.44;4980031;28;1914;-60
2022/02/06 02:51:23;;;;;;;;;;;;;;;17.38;37.64;101406.53;4980228;28;818;-62
2022/02/06 02:53:57;;;;;;;;;;;;;;;17.32;38.01;101405.66;4980356;28;954;-60
2022/02/06 02:59:06;;;;;;;;;;;;;;;17.30;37.91;101418.81;4980357;28;827;-61
2022/02/06 03:01:47;;;;;;;;;;;;;;;17.25;38.18;101416.88;4979670;28;873;-61
2022/02/06 03:04:13;;;;;;;;;;;;;;;17.27;38.06;101419.34;4979612;28;751;-61
2022/02/06 03:06:38;;;;;;;;;;;;;;;17.23;38.17;101420.97;4979521;28;866;-60
2022/02/06 03:09:04;;;;;;;;;;;;;;;17.33;37.96;101431.22;4979455;28;1898;-60
2022/02/06 03:11:30;;;;;;;;;;;;;;;17.35;37.73;101432.63;4979494;28;807;-61
2022/02/06 03:14:12;;;;;;;;;;;;;;;17.62;37.30;101435.28;4996115;28;838;-60
2022/02/06 03:16:44;;;;;;;;;;;;;;;18.14;36.25;101438.34;4979514;28;728;-61
2022/02/06 03:19:16;;;;;;;;;;;;;;;18.22;36.19;101446.09;4992260;28;747;-60
2022/02/06 03:21:43;;;;;;;;;;;;;;;17.97;36.75;101444.06;4979329;28;874;-60
2022/02/06 03:24:21;;;;;;;;;;;;;;;17.61;37.27;101432.78;4978921;28;775;-60
2022/02/06 03:26:47;;;;;;;;;;;;;;;17.56;37.41;101447.34;4981809;28;910;-60
2022/02/06 03:29:12;;;;;;;;;;;;;;;17.42;37.80;101451.63;4981163;28;1914;-60
2022/02/06 03:31:38;;;;;;;;;;;;;;;17.23;37.89;101452.00;4978207;28;1201;-60
2022/02/06 03:34:04;;;;;;;;;;;;;;;17.23;37.92;101454.75;4979366;28;747;-60
2022/02/06 03:36:29;;;;;;;;;;;;;;;17.14;38.26;101458.25;4978995;28;850;-60
2022/02/06 03:38:56;;;;;;;;;;;;;;;17.20;38.11;101468.22;4984964;28;926;-61
2022/02/06 03:41:21;;;;;;;;;;;;;;;17.21;37.86;101470.69;4978800;28;736;-61
2022/02/06 03:44:01;;;;;;;;;;;;;;;17.49;37.38;101470.63;4978822;28;799;-60
2022/02/06 03:46:34;;;;;;;;;;;;;;;17.60;37.14;101480.66;4983300;28;825;-60
2022/02/06 03:49:28;;;;;;;;;;;;;;;17.76;37.06;101493.41;4978806;28;1971;-60
2022/02/06 03:51:45;;;;;;;;;;;;;;;17.80;36.91;101496.47;4980794;28;1360;-61
2022/02/06 03:54:11;;;;;;;;;;;;;;;17.87;36.80;101491.56;4978672;28;933;-60
2022/02/06 03:56:38;;;;;;;;;;;;;;;17.90;36.72;101490.22;4978539;28;795;-60
2022/02/06 03:59:04;;;;;;;;;;;;;;;17.91;36.51;101500.16;4980946;28;835;-60
2022/02/06 04:01:30;;;;;;;;;;;;;;;18.02;36.47;101493.63;4980676;28;834;-60
2022/02/06 04:03:55;;;;;;;;;;;;;;;17.98;36.62;101492.50;4983949;28;938;-60
2022/02/06 04:06:20;;;;;;;;;;;;;;;18.18;36.13;101501.97;4978429;28;846;-60
2022/02/06 04:08:46;;;;;;;;;;;;;;;18.32;35.90;101497.63;4978413;28;1910;-60
2022/02/06 04:11:17;;;;;;;;;;;;;;;18.19;36.41;101503.59;4978582;28;827;-59
2022/02/06 04:16:37;;;;;;;;;;;;;;;18.45;35.57;101505.41;4990187;28;994;-60
2022/02/06 04:19:18;;;;;;;;;;;;;;;18.32;35.88;101505.88;4996823;28;1127;-60
2022/02/06 04:21:44;;;;;;;;;;;;;;;18.36;35.79;101504.25;4996685;28;830;-61
2022/02/06 04:24:09;;;;;;;;;;;;;;;18.34;35.93;101506.47;4996944;28;863;-59
2022/02/06 04:26:35;;;;;;;;;;;;;;;18.34;36.16;101506.47;4996768;28;750;-60
2022/02/06 04:29:00;;;;;;;;;;;;;;;18.16;36.06;101516.00;4990290;28;1974;-58
2022/02/06 04:31:25;;;;;;;;;;;;;;;17.82;37.09;101515.47;4978000;28;1206;-59
2022/02/06 04:33:51;;;;;;;;;;;;;;;17.40;37.85;101515.13;4977649;28;898;-59
2022/02/06 04:36:18;;;;;;;;;;;;;;;17.20;37.96;101515.75;4977849;28;983;-62
2022/02/06 04:39:34;;;;;;;;;;;;;;;16.85;38.70;101529.91;4978034;28;786;-62
2022/02/06 04:42:12;;;;;;;;;;;;;;;16.85;38.56;101525.25;4979914;28;1352;-63
2022/02/06 05:29:03;;;;;;;;;;;;;;;17.30;37.61;101569.19;4995277;28;1982;-59
2022/02/06 05:31:37;;;;;;;;;;;;;;;16.94;38.34;101580.59;4976589;28;1083;-59
2022/02/06 05:34:03;;;;;;;;;;;;;;;16.96;38.42;101589.41;4978673;28;894;-59
2022/02/06 05:36:28;;;;;;;;;;;;;;;16.85;38.78;101584.84;4977407;28;896;-58
2022/02/06 05:38:54;;;;;;;;;;;;;;;17.24;38.09;101577.38;4977370;28;1155;-59
2022/02/06 05:41:19;;;;;;;;;;;;;;;17.62;37.16;101582.97;4977231;28;835;-57
2022/02/06 05:43:44;;;;;;;;;;;;;;;18.05;36.57;101578.41;4976991;28;875;-58
2022/02/06 05:46:10;;;;;;;;;;;;;;;18.32;35.84;101580.22;4986127;28;1009;-57
2022/02/06 05:48:35;;;;;;;;;;;;;;;18.64;35.42;101588.38;4977360;28;1906;-59
2022/02/06 05:51:01;;;;;;;;;;;;;;;18.50;35.56;101583.66;4976785;28;878;-58
2022/02/06 05:53:26;;;;;;;;;;;;;;;18.13;36.12;101582.56;4977350;28;853;-58
2022/02/06 05:55:52;;;;;;;;;;;;;;;18.02;36.37;101589.94;4980654;28;815;-59
2022/02/06 05:58:17;;;;;;;;;;;;;;;17.94;36.32;101594.00;4964126;28;851;-58
2022/02/06 06:00:43;;;;;;;;;;;;;;;17.85;36.41;101586.44;4983054;28;1446;-58
2022/02/06 06:03:08;;;;;;;;;;;;;;;18.02;36.31;101587.19;4962452;28;1513;-57
2022/02/06 06:05:35;;;;;;;;;;;;;;;17.88;36.68;101577.66;4980713;28;896;-56
2022/02/06 06:08:00;;;;;;;;;;;;;;;17.92;36.48;101584.34;4980245;28;1967;-56
2022/02/06 06:10:26;;;;;;;;;;;;;;;17.65;36.76;101593.44;4983184;28;829;-56
2022/02/06 06:12:51;;;;;;;;;;;;;;;17.70;37.04;101593.50;4997702;28;1030;-54
2022/02/06 06:15:16;;;;;;;;;;;;;;;17.72;36.76;101593.22;4988393;28;941;-56
2022/02/06 06:17:42;;;;;;;;;;;;;;;17.79;36.94;101594.69;4980394;28;846;-55
2022/02/06 06:20:12;;;;;;;;;;;;;;;17.61;36.91;101606.03;4980018;28;787;-54
2022/02/06 06:22:37;;;;;;;;;;;;;;;17.69;36.91;101605.56;4980109;28;893;-53
2022/02/06 06:25:04;;;;;;;;;;;;;;;17.48;37.53;101615.56;4981259;28;839;-52
2022/02/06 06:27:29;;;;;;;;;;;;;;;17.66;36.87;101627.28;4980236;28;823;-55
2022/02/06 06:29:55;;;;;;;;;;;;;;;17.52;37.38;101622.19;4985280;28;1910;-55
2022/02/06 06:32:20;;;;;;;;;;;;;;;17.39;37.34;101628.09;4979612;28;1256;-55
2022/02/06 06:34:46;;;;;;;;;;;;;;;17.41;37.64;101629.50;4979901;28;851;-55
2022/02/06 06:37:11;;;;;;;;;;;;;;;17.33;37.75;101640.94;4966302;28;1166;-55
2022/02/06 06:39:41;;;;;;;;;;;;;;;17.31;37.77;101637.63;4980158;28;838;-56
2022/02/06 06:42:07;;;;;;;;;;;;;;;17.28;37.62;101643.66;4979909;28;807;-56
2022/02/06 06:44:32;;;;;;;;;;;;;;;17.22;37.94;101645.53;4966010;28;1509;-55
2022/02/06 06:46:58;;;;;;;;;;;;;;;17.37;37.44;101644.84;4979952;28;835;-55
2022/02/06 06:49:23;;;;;;;;;;;;;;;17.56;37.04;101647.28;4979672;28;1902;-55
2022/02/06 06:51:49;;;;;;;;;;;;;;;17.87;36.40;101644.81;4979391;28;874;-55
2022/02/06 06:54:19;;;;;;;;;;;;;;;18.03;36.13;101643.03;4980106;28;859;-56
2022/02/06 06:57:21;;;;;;;;;;;;;;;18.21;36.17;101647.31;4979720;28;886;-57
2022/02/06 07:04:58;;;;;;;;;;;;;;;18.47;35.43;101643.66;4992379;28;754;-53
2022/02/06 07:07:27;;;;;;;;;;;;;;;18.46;35.44;101633.72;4997512;28;874;-56
2022/02/06 07:09:52;;;;;;;;;;;;;;;18.66;35.07;101648.72;4998063;28;1973;-55
2022/02/06 07:12:18;;;;;;;;;;;;;;;18.81;34.67;101650.75;4980248;28;842;-55
2022/02/06 07:14:44;;;;;;;;;;;;;;;18.52;35.50;101651.13;4990065;28;766;-55
2022/02/06 07:17:09;;;;;;;;;;;;;;;18.13;36.13;101663.25;4978999;28;977;-55
2022/02/06 07:19:35;;;;;;;;;;;;;;;17.71;36.96;101647.41;4979080;28;909;-55
2022/02/06 07:22:00;;;;;;;;;;;;;;;17.45;37.45;101655.38;4979357;28;766;-55
2022/02/06 07:24:27;;;;;;;;;;;;;;;17.15;37.85;101655.84;4979162;28;774;-56
2022/02/06 07:26:56;;;;;;;;;;;;;;;17.03;38.11;101646.94;4997416;28;754;-56
2022/02/06 07:29:23;;;;;;;;;;;;;;;16.89;38.53;101657.47;4983338;28;1906;-55
2022/02/06 07:31:50;;;;;;;;;;;;;;;16.94;38.65;101652.00;4978425;28;1130;-56
2022/02/06 07:34:15;;;;;;;;;;;;;;;17.06;38.21;101651.91;4997261;28;1034;-56
2022/02/06 07:36:41;;;;;;;;;;;;;;;17.43;37.71;101646.59;4997419;28;827;-53
2022/02/06 07:39:06;;;;;;;;;;;;;;;17.68;37.12;101647.09;4997094;28;752;-55
2022/02/06 07:41:32;;;;;;;;;;;;;;;17.85;36.69;101652.47;4978920;28;898;-57
2022/02/06 07:43:57;;;;;;;;;;;;;;;17.98;36.60;101649.34;4979743;28;1502;-56
2022/02/06 07:46:29;;;;;;;;;;;;;;;18.01;36.50;101646.06;4980193;28;814;-55
2022/02/06 07:48:59;;;;;;;;;;;;;;;18.09;36.17;101648.34;4979028;28;1894;-56
2022/02/06 07:51:24;;;;;;;;;;;;;;;18.23;36.13;101654.22;4978566;28;783;-55
2022/02/06 07:53:50;;;;;;;;;;;;;;;18.23;35.88;101656.13;4980864;28;862;-56
2022/02/06 07:56:16;;;;;;;;;;;;;;;18.40;35.51;101648.56;4978643;28;862;-56
2022/02/06 07:58:41;;;;;;;;;;;;;;;18.41;35.90;101647.50;4978459;28;867;-55
2022/02/06 08:01:07;;;;;;;;;;;;;;;18.34;36.01;101648.78;4979582;28;1005;-56
2022/02/06 08:03:32;;;;;;;;;;;;;;;18.42;36.06;101651.88;4978442;28;822;-56
2022/02/06 08:05:58;;;;;;;;;;;;;;;18.60;35.69;101649.81;4984222;28;826;-55
2022/02/06 08:08:23;;;;;;;;;;;;;;;18.46;35.94;101643.94;4977891;28;1902;-56
2022/02/06 08:10:50;;;;;;;;;;;;;;;18.35;35.77;101651.28;4978175;28;834;-55
2022/02/06 08:13:26;;;;;;;;;;;;;;;18.02;36.50;101646.88;4978094;28;929;-55
2022/02/06 08:15:52;;;;;;;;;;;;;;;17.62;37.48;101647.03;4993835;28;879;-55
2022/02/06 08:18:17;;;;;;;;;;;;;;;17.47;37.66;101635.88;4992113;28;808;-55
2022/02/06 08:20:43;;;;;;;;;;;;;;;16.97;38.47;101637.78;4977759;28;878;-56
2022/02/06 08:23:08;;;;;;;;;;;;;;;16.97;38.36;101635.03;4978666;28;784;-56
2022/02/06 08:25:34;;;;;;;;;;;;;;;16.62;38.74;101630.69;4978350;28;766;-56
2022/02/06 08:28:00;;;;;;;;;;;;;;;17.02;38.78;101637.84;4977945;28;1898;-56
2022/02/06 08:30:25;;;;;;;;;;;;;;;18.13;36.41;101632.97;4984135;28;843;-55
2022/02/06 08:32:51;;;;;;;;;;;;;;;18.34;36.16;101635.88;4981793;28;1034;-56
2022/02/06 08:35:16;;;;;;;;;;;;;;;17.87;36.80;101634.63;4977711;28;920;-56
2022/02/06 08:37:42;;;;;;;;;;;;;;;17.68;37.11;101630.59;4977640;28;814;-56
2022/02/06 08:40:12;;;;;;;;;;;;;;;17.57;37.28;101618.66;4978008;28;807;-52
2022/02/06 08:42:41;;;;;;;;;;;;;;;17.55;37.66;101626.34;4977434;28;834;-55
2022/02/06 08:45:06;;;;;;;;;;;;;;;17.51;37.47;101616.97;4981479;28;920;-54
2022/02/06 08:47:32;;;;;;;;;;;;;;;17.31;37.82;101614.84;4977893;28;831;-56
2022/02/06 08:49:57;;;;;;;;;;;;;;;17.34;38.05;101614.31;4977774;28;1910;-56
2022/02/06 08:52:23;;;;;;;;;;;;;;;17.44;37.86;101609.72;4977704;28;1549;-56
2022/02/06 08:54:49;;;;;;;;;;;;;;;17.78;37.18;101615.03;4977685;28;774;-54
2022/02/06 08:57:26;;;;;;;;;;;;;;;17.97;36.90;101622.91;4983596;28;800;-55
2022/02/06 08:59:52;;;;;;;;;;;;;;;18.06;36.57;101610.34;4977799;28;885;-55
2022/02/06 09:02:17;;;;;;;;;;;;;;;18.27;36.10;101613.22;4977679;28;744;-54
2022/02/06 09:04:43;;;;;;;;;;;;;;;18.33;36.13;101612.19;4976992;28;897;-56
2022/02/06 09:07:09;;;;;;;;;;;;;;;18.44;35.87;101615.84;4976948;28;826;-56
2022/02/06 09:09:35;;;;;;;;;;;;;;;18.42;35.83;101615.25;4980320;28;2011;-56
2022/02/06 09:12:02;;;;;;;;;;;;;;;18.52;35.48;101608.97;4977322;28;916;-56
2022/02/06 09:14:28;;;;;;;;;;;;;;;18.45;35.74;101606.47;4982430;28;1029;-56
2022/02/06 09:16:53;;;;;;;;;;;;;;;18.56;35.54;101612.88;4977362;28;816;-56
2022/02/06 09:19:19;;;;;;;;;;;;;;;18.62;35.51;101598.88;4977110;28;843;-56
2022/02/06 09:21:44;;;;;;;;;;;;;;;18.47;36.01;101604.28;4982730;28;931;-55
2022/02/06 09:24:10;;;;;;;;;;;;;;;18.29;36.34;101602.78;4977927;28;878;-55
2022/02/06 09:26:35;;;;;;;;;;;;;;;18.15;36.66;101607.09;4977994;28;766;-55
2022/02/06 09:29:01;;;;;;;;;;;;;;;17.78;37.19;101608.69;4979398;28;1903;-55
2022/02/06 09:31:27;;;;;;;;;;;;;;;17.84;37.11;101598.53;4982627;28;1076;-55
2022/02/06 09:36:19;;;;;;;;;;;;;;;17.64;37.45;101593.69;4982964;28;839;-55
2022/02/06 09:38:44;;;;;;;;;;;;;;;17.56;37.79;101608.78;4981203;28;758;-55
2022/02/06 09:41:10;;;;;;;;;;;;;;;17.35;37.90;101593.94;4981359;28;853;-54
2022/02/06 09:43:35;;;;;;;;;;;;;;;17.40;37.81;101600.38;4981159;28;902;-56
2022/02/06 09:46:03;;;;;;;;;;;;;;;17.40;37.88;101594.88;4965377;28;1058;-55
2022/02/06 09:48:29;;;;;;;;;;;;;;;17.22;38.36;101592.44;4985908;28;1913;-56
2022/02/06 09:50:55;;;;;;;;;;;;;;;17.19;38.36;101590.22;4980756;28;823;-55
2022/02/06 09:53:20;;;;;;;;;;;;;;;17.14;38.47;101590.16;4980835;28;858;-56
2022/02/06 09:55:46;;;;;;;;;;;;;;;17.39;38.22;101590.44;4980728;28;820;-56
2022/02/06 10:00:43;;;;;;;;;;;;;;;17.37;38.01;101578.03;4970138;28;862;-56
2022/02/06 10:03:11;;;;;;;;;;;;;;;17.69;37.44;101574.50;4980452;28;734;-57
2022/02/06 10:05:36;;;;;;;;;;;;;;;18.13;36.86;101575.16;4980846;28;837;-57
2022/02/06 10:08:10;;;;;;;;;;;;;;;18.43;36.05;101567.34;4962840;28;1906;-56
2022/02/06 10:10:36;;;;;;;;;;;;;;;18.64;35.80;101555.34;4980654;28;909;-57
2022/02/06 10:13:02;;;;;;;;;;;;;;;18.80;35.32;101550.72;4968447;28;847;-56
2022/02/06 10:15:27;;;;;;;;;;;;;;;18.99;34.95;101547.50;4984620;28;878;-56
2022/02/06 10:17:53;;;;;;;;;;;;;;;18.68;35.62;101541.88;4980162;28;831;-55
2022/02/06 10:20:19;;;;;;;;;;;;;;;17.86;37.14;101536.66;4980533;28;820;-56
2022/02/06 10:25:13;;;;;;;;;;;;;;;17.02;38.97;101529.84;4997136;28;893;-56
2022/02/06 10:30:42;;;;;;;;;;;;;;;16.90;38.79;101524.50;4982933;28;929;-54
2022/02/06 10:33:16;;;;;;;;;;;;;;;16.62;39.09;101518.13;4980180;28;1014;-56
2022/02/06 10:35:42;;;;;;;;;;;;;;;17.11;38.96;101528.31;4992800;28;812;-55
2022/02/06 10:38:18;;;;;;;;;;;;;;;17.86;37.35;101519.34;4984612;28;814;-56
2022/02/06 10:40:44;;;;;;;;;;;;;;;17.75;37.49;101511.03;4978748;28;846;-55
2022/02/06 10:43:10;;;;;;;;;;;;;;;17.72;37.22;101505.22;4979735;28;873;-55
2022/02/06 10:45:39;;;;;;;;;;;;;;;17.67;37.47;101500.50;4980614;28;1004;-55
2022/02/06 10:48:18;;;;;;;;;;;;;;;17.61;37.66;101496.03;4979890;28;1977;-55
2022/02/06 10:50:44;;;;;;;;;;;;;;;17.70;37.62;101504.66;4980513;28;811;-55
2022/02/06 10:53:10;;;;;;;;;;;;;;;17.73;37.40;101504.94;4979750;28;804;-56
2022/02/06 10:55:36;;;;;;;;;;;;;;;17.69;37.31;101506.56;4980213;28;775;-54
2022/02/06 10:58:03;;;;;;;;;;;;;;;17.64;37.72;101497.44;4962271;28;1065;-55
2022/02/06 11:00:29;;;;;;;;;;;;;;;17.58;37.64;101502.06;4985106;28;823;-54
2022/02/06 11:03:03;;;;;;;;;;;;;;;17.57;37.82;101503.16;4979694;28;842;-54
2022/02/06 11:05:40;;;;;;;;;;;;;;;17.66;37.78;101492.53;4993442;28;1019;-55
2022/02/06 11:08:05;;;;;;;;;;;;;;;17.55;37.54;101488.84;4982384;28;1898;-55
2022/02/06 11:10:32;;;;;;;;;;;;;;;17.72;37.49;101484.03;4998276;28;731;-56
2022/02/06 11:12:59;;;;;;;;;;;;;;;17.57;37.45;101486.66;4997784;28;815;-56
2022/02/06 11:15:25;;;;;;;;;;;;;;;17.62;37.81;101483.97;4988777;28;838;-56
2022/02/06 11:18:03;;;;;;;;;;;;;;;17.67;37.66;101472.16;4980998;28;894;-56
2022/02/06 11:20:28;;;;;;;;;;;;;;;17.71;37.49;101479.63;4979300;28;827;-56
2022/02/06 11:22:58;;;;;;;;;;;;;;;17.60;37.69;101470.47;4979280;28;810;-55
2022/02/06 11:25:24;;;;;;;;;;;;;;;17.63;37.56;101463.63;4979307;28;820;-55
2022/02/06 11:27:50;;;;;;;;;;;;;;;17.78;37.41;101460.97;4978475;28;1975;-53
2022/02/06 11:30:19;;;;;;;;;;;;;;;17.63;37.46;101452.63;4982626;28;846;-55
2022/02/06 11:32:46;;;;;;;;;;;;;;;17.81;37.38;101456.03;4978517;28;1194;-54
2022/02/06 11:35:16;;;;;;;;;;;;;;;17.76;37.07;101449.38;4978725;28;850;-53
2022/02/06 11:43:50;;;;;;;;;;;;;;;17.75;37.22;101425.75;4964834;28;881;-55
2022/02/06 11:46:22;;;;;;;;;;;;;;;17.56;37.80;101427.28;4978880;28;718;-55
2022/02/06 11:48:48;;;;;;;;;;;;;;;17.49;37.73;101412.91;4991631;28;1906;-53
2022/02/06 11:51:14;;;;;;;;;;;;;;;17.64;37.58;101415.75;4997197;28;789;-56
2022/02/06 11:53:40;;;;;;;;;;;;;;;17.57;37.65;101404.16;4996516;28;1492;-54
2022/02/06 11:56:22;;;;;;;;;;;;;;;17.72;37.45;101397.94;4967397;28;873;-55
2022/02/06 11:58:51;;;;;;;;;;;;;;;17.58;37.80;101405.81;4992794;28;908;-54
2022/02/06 12:01:16;;;;;;;;;;;;;;;17.77;37.49;101395.22;4982557;28;830;-54
2022/02/06 12:03:55;;;;;;;;;;;;;;;17.75;37.41;101390.00;4978624;28;873;-54
2022/02/06 12:06:24;;;;;;;;;;;;;;;17.73;37.34;101383.09;4978504;28;820;-55
2022/02/06 12:08:58;;;;;;;;;;;;;;;17.70;37.28;101370.69;4979186;28;1989;-54
2022/02/06 12:11:27;;;;;;;;;;;;;;;17.77;37.52;101387.78;4977912;28;858;-51
2022/02/06 12:14:09;;;;;;;;;;;;;;;17.63;37.58;101375.63;4978327;28;879;-52
2022/02/06 12:16:53;;;;;;;;;;;;;;;17.61;37.73;101384.13;4996723;28;818;-56
2022/02/06 12:19:31;;;;;;;;;;;;;;;17.56;37.65;101375.03;4997361;28;815;-55
2022/02/06 12:21:59;;;;;;;;;;;;;;;17.49;37.86;101368.91;4963611;28;1221;-56
2022/02/06 12:24:43;;;;;;;;;;;;;;;17.57;37.85;101365.66;4978065;28;720;-54
2022/02/06 12:27:27;;;;;;;;;;;;;;;17.62;37.79;101362.94;4978026;28;799;-54
2022/02/06 12:30:04;;;;;;;;;;;;;;;17.60;37.70;101368.72;4983989;28;1910;-55
2022/02/06 12:32:30;;;;;;;;;;;;;;;17.59;37.53;101367.06;4978438;28;1063;-57
2022/02/06 12:37:40;;;;;;;;;;;;;;;17.64;37.78;101348.94;4977505;28;854;-57
2022/02/06 12:40:07;;;;;;;;;;;;;;;17.69;37.53;101349.78;4978023;28;795;-56
2022/02/06 12:42:38;;;;;;;;;;;;;;;17.58;37.80;101345.31;4977742;28;815;-56
2022/02/06 12:45:04;;;;;;;;;;;;;;;17.64;37.37;101354.44;4984856;28;1515;-56
2022/02/06 12:47:29;;;;;;;;;;;;;;;17.57;37.57;101343.66;4979623;28;1013;-56
2022/02/06 12:49:55;;;;;;;;;;;;;;;17.56;37.72;101348.34;4977000;28;1981;-56
2022/02/06 12:52:20;;;;;;;;;;;;;;;17.54;37.55;101338.69;4977691;28;1056;-56
2022/02/06 12:54:46;;;;;;;;;;;;;;;17.69;37.08;101336.03;4977602;28;823;-56
2022/02/06 12:57:11;;;;;;;;;;;;;;;17.55;36.94;101324.69;4980221;28;948;-55
2022/02/06 12:59:37;;;;;;;;;;;;;;;17.62;36.74;101332.69;4984877;28;846;-55
2022/02/06 13:02:05;;;;;;;;;;;;;;;17.86;36.49;101329.50;4978193;28;863;-54
2022/02/06 13:04:35;;;;;;;;;;;;;;;17.79;36.64;101329.75;4980731;28;750;-54
2022/02/06 13:07:03;;;;;;;;;;;;;;;17.89;36.52;101326.22;4981904;28;843;-55
2022/02/06 13:09:32;;;;;;;;;;;;;;;17.88;36.42;101330.06;4981947;28;1910;-54
2022/02/06 13:12:07;;;;;;;;;;;;;;;17.74;36.87;101324.22;4985511;28;953;-54
2022/02/06 13:22:51;;;;;;;;;;;;;;;17.73;36.86;101317.09;4999682;28;767;-55
2022/02/06 13:38:42;;;;;;;;;;;;;;;17.73;36.80;101300.56;4980779;28;778;-53
2022/02/06 13:41:11;;;;;;;;;;;;;;;17.76;36.68;101297.28;4981163;28;827;-54
2022/02/06 13:43:40;;;;;;;;;;;;;;;17.84;36.56;101295.91;4999022;28;1142;-54
2022/02/06 13:46:12;;;;;;;;;;;;;;;17.75;36.88;101301.13;4987183;28;984;-53
2022/02/06 13:48:37;;;;;;;;;;;;;;;17.64;36.78;101294.75;4980879;28;1973;-54
2022/02/06 13:51:05;;;;;;;;;;;;;;;17.77;36.52;101299.75;4999062;28;795;-54
2022/02/06 13:53:33;;;;;;;;;;;;;;;17.65;36.93;101292.84;4999486;28;1000;-53
2022/02/06 13:56:03;;;;;;;;;;;;;;;17.88;36.59;101300.63;4981995;28;837;-54
2022/02/06 13:58:31;;;;;;;;;;;;;;;17.89;36.42;101284.94;4998529;28;734;-53
2022/02/06 14:01:03;;;;;;;;;;;;;;;17.77;36.63;101288.75;4985567;28;1032;-53
2022/02/06 14:03:45;;;;;;;;;;;;;;;17.87;36.45;101279.72;4983936;28;934;-56
2022/02/06 14:06:11;;;;;;;;;;;;;;;17.76;36.70;101281.59;4980324;28;783;-57
2022/02/06 14:08:38;;;;;;;;;;;;;;;17.81;36.55;101282.72;4980532;28;1906;-57
2022/02/06 14:11:18;;;;;;;;;;;;;;;17.81;36.56;101283.56;4982522;28;1577;-56
2022/02/06 14:13:43;;;;;;;;;;;;;;;17.89;36.27;101290.44;4980461;28;709;-56
2022/02/06 14:16:12;;;;;;;;;;;;;;;17.80;36.49;101276.41;4986843;28;969;-57
2022/02/06 14:18:51;;;;;;;;;;;;;;;17.81;36.67;101285.47;4980571;28;841;-56
2022/02/06 14:21:17;;;;;;;;;;;;;;;17.74;36.76;101283.81;4979948;28;972;-57
2022/02/06 14:23:42;;;;;;;;;;;;;;;17.72;36.65;101274.97;4979677;28;822;-57
2022/02/06 14:26:11;;;;;;;;;;;;;;;17.78;36.57;101273.91;4980275;28;866;-56
2022/02/06 14:28:45;;;;;;;;;;;;;;;17.81;36.51;101279.97;4982549;28;1973;-57
2022/02/06 14:31:22;;;;;;;;;;;;;;;17.68;36.55;101279.38;4986080;28;1075;-57
2022/02/06 14:33:48;;;;;;;;;;;;;;;17.87;36.43;101281.66;4993131;28;843;-57
2022/02/06 14:36:17;;;;;;;;;;;;;;;17.71;36.70;101292.59;4998375;28;912;-57
2022/02/06 14:38:48;;;;;;;;;;;;;;;17.77;36.42;101277.75;4999009;28;728;-57
2022/02/06 14:43:55;;;;;;;;;;;;;;;17.54;36.71;101278.22;4980135;28;899;-57
2022/02/06 14:46:20;;;;;;;;;;;;;;;17.63;36.88;101271.09;4982791;28;1003;-57
2022/02/06 14:48:46;;;;;;;;;;;;;;;17.57;37.01;101263.91;4979845;28;1918;-57
2022/02/06 14:51:13;;;;;;;;;;;;;;;17.58;37.04;101258.16;4979969;28;787;-57
2022/02/06 14:53:39;;;;;;;;;;;;;;;17.60;37.01;101255.16;4982202;28;842;-57
2022/02/06 14:56:04;;;;;;;;;;;;;;;17.67;36.89;101266.72;4979837;28;815;-57
2022/02/06 14:58:30;;;;;;;;;;;;;;;17.54;37.05;101265.28;4979701;28;849;-57
2022/02/06 15:00:55;;;;;;;;;;;;;;;17.62;37.00;101259.25;4981349;28;986;-57
2022/02/06 15:03:21;;;;;;;;;;;;;;;17.65;36.99;101257.09;4981816;28;1039;-57
2022/02/06 15:05:48;;;;;;;;;;;;;;;17.78;36.72;101268.41;4997256;28;862;-57
2022/02/06 15:08:14;;;;;;;;;;;;;;;17.67;36.64;101255.72;4979370;28;1911;-57
2022/02/06 15:10:40;;;;;;;;;;;;;;;17.77;36.61;101253.00;4979280;28;755;-56
2022/02/06 15:13:06;;;;;;;;;;;;;;;17.77;36.77;101246.69;4978897;28;838;-57
2022/02/06 15:15:37;;;;;;;;;;;;;;;17.67;36.91;101260.38;4979786;28;1437;-57
2022/02/06 15:18:11;;;;;;;;;;;;;;;17.74;36.94;101261.81;4991120;28;814;-57
2022/02/06 15:20:37;;;;;;;;;;;;;;;17.62;37.11;101247.44;4978911;28;914;-57
2022/02/06 15:23:07;;;;;;;;;;;;;;;17.68;37.15;101251.84;4979061;28;838;-57
2022/02/06 15:25:37;;;;;;;;;;;;;;;17.74;36.80;101250.78;4979034;28;1187;-57
2022/02/06 15:28:03;;;;;;;;;;;;;;;17.93;36.50;101253.91;4978846;28;1926;-58
2022/02/06 15:30:28;;;;;;;;;;;;;;;17.81;36.67;101246.94;4985131;28;931;-57
2022/02/06 15:32:54;;;;;;;;;;;;;;;17.71;36.85;101248.59;4984253;28;1047;-57
2022/02/06 15:35:20;;;;;;;;;;;;;;;17.70;37.15;101246.13;4979432;28;1011;-57
2022/02/06 15:37:47;;;;;;;;;;;;;;;17.62;37.23;101241.94;4980394;28;1470;-57